createdAt,value
2022-10-06T00:00:33.733Z,3.97
2022-10-06T00:03:00.556Z,4.60
2022-10-06T00:05:27.875Z,3.83
2022-10-06T00:07:55.485Z,3.87
2022-10-06T00:10:22.353Z,2.90
2022-10-06T00:12:51.172Z,3.70
2022-10-06T00:15:21.640Z,2.90
2022-10-06T00:17:48.434Z,3.07
2022-10-06T00:20:15.291Z,2.83
2022-10-06T00:22:44.656Z,4.13
2022-10-06T00:25:14.218Z,3.07
2022-10-06T00:27:43.342Z,3.17
2022-10-06T00:30:13.165Z,3.53
2022-10-06T00:32:40.209Z,3.80
2022-10-06T00:35:08.130Z,3.27
2022-10-06T00:37:37.346Z,2.93
2022-10-06T00:40:09.680Z,3.73
2022-10-06T00:42:50.757Z,3.50
2022-10-06T00:45:20.888Z,5.03
2022-10-06T00:47:47.808Z,3.00
2022-10-06T00:50:15.357Z,2.97
2022-10-06T00:52:42.831Z,3.40
2022-10-06T00:55:09.728Z,3.27
2022-10-06T00:57:38.452Z,2.80
2022-10-06T01:00:09.283Z,3.60
2022-10-06T01:03:04.443Z,4.80
2022-10-06T01:05:37.016Z,3.10
2022-10-06T01:08:03.792Z,5.73
2022-10-06T01:10:30.480Z,2.27
2022-10-06T01:12:57.422Z,3.37
2022-10-06T01:15:25.867Z,3.00
2022-10-06T01:18:02.220Z,2.93
2022-10-06T01:20:30.011Z,3.90
2022-10-06T01:23:05.273Z,3.63
2022-10-06T01:25:34.038Z,3.23
2022-10-06T01:28:03.857Z,4.40
2022-10-06T01:30:36.517Z,3.67
2022-10-06T01:33:03.629Z,3.97
2022-10-06T01:35:30.353Z,4.47
2022-10-06T01:37:58.947Z,3.33
2022-10-06T01:40:28.988Z,3.57
2022-10-06T01:42:56.372Z,4.27
2022-10-06T01:45:23.108Z,3.50
2022-10-06T01:47:49.906Z,3.33
2022-10-06T01:50:17.127Z,3.93
2022-10-06T01:52:43.851Z,4.00
2022-10-06T01:55:10.623Z,3.60
2022-10-06T01:57:41.660Z,2.83
2022-10-06T02:00:09.602Z,4.03
2022-10-06T02:02:36.424Z,2.63
2022-10-06T02:05:03.882Z,3.10
2022-10-06T02:07:30.620Z,4.47
2022-10-06T02:09:57.321Z,4.27
2022-10-06T02:12:24.143Z,5.40
2022-10-06T02:14:50.831Z,4.20
2022-10-06T02:17:17.567Z,3.57
2022-10-06T02:19:44.310Z,3.33
2022-10-06T02:22:11.088Z,4.23
2022-10-06T02:24:37.781Z,3.63
2022-10-06T02:27:05.244Z,3.93
2022-10-06T02:29:31.984Z,3.50
2022-10-06T02:31:58.784Z,4.37
2022-10-06T02:34:25.788Z,3.70
2022-10-06T02:36:52.557Z,4.10
2022-10-06T02:39:19.479Z,4.57
2022-10-06T02:41:46.635Z,4.97
2022-10-06T02:44:14.078Z,5.77
2022-10-06T02:46:41.840Z,4.30
2022-10-06T02:49:08.564Z,3.97
2022-10-06T02:51:35.322Z,3.67
2022-10-06T02:54:02.019Z,4.80
2022-10-06T02:56:28.802Z,6.20
2022-10-06T02:58:55.648Z,6.03
2022-10-06T03:01:25.612Z,3.87
2022-10-06T03:03:53.205Z,3.67
2022-10-06T03:06:22.404Z,3.80
2022-10-06T03:08:55.056Z,4.00
2022-10-06T03:11:24.535Z,3.60
2022-10-06T03:13:52.017Z,5.23
2022-10-06T03:16:21.955Z,4.23
2022-10-06T03:18:50.091Z,4.87
2022-10-06T03:21:22.320Z,3.80
2022-10-06T03:23:50.494Z,5.87
2022-10-06T03:26:19.169Z,4.03
2022-10-06T03:28:46.461Z,5.00
2022-10-06T03:31:14.393Z,5.23
2022-10-06T03:33:41.172Z,3.47
2022-10-06T03:36:11.628Z,9.97
2022-10-06T03:38:38.717Z,3.53
2022-10-06T03:41:07.268Z,3.37
2022-10-06T03:43:35.530Z,4.60
2022-10-06T03:46:04.040Z,3.83
2022-10-06T03:48:33.661Z,5.80
2022-10-06T03:51:03.877Z,3.97
2022-10-06T03:53:32.190Z,11.97
2022-10-06T03:56:05.968Z,5.67
2022-10-06T03:58:35.311Z,9.10
2022-10-06T04:01:04.525Z,5.30
2022-10-06T04:03:31.799Z,4.60
2022-10-06T04:06:00.854Z,9.63
2022-10-06T04:08:29.767Z,5.83
2022-10-06T04:11:05.204Z,6.13
2022-10-06T04:13:31.943Z,5.27
2022-10-06T04:15:58.657Z,4.17
2022-10-06T04:18:25.522Z,3.60
2022-10-06T04:20:59.611Z,8.23
2022-10-06T04:23:26.323Z,7.43
2022-10-06T04:26:02.811Z,12.80
2022-10-06T04:28:30.274Z,4.93
2022-10-06T04:31:01.617Z,5.70
2022-10-06T04:33:31.846Z,3.57
2022-10-06T04:36:05.144Z,9.60
2022-10-06T04:38:35.955Z,7.73
2022-10-06T04:41:21.039Z,13.03
2022-10-06T04:43:49.042Z,6.90
2022-10-06T04:46:41.682Z,8.77
2022-10-06T04:49:04.063Z,6.00
2022-10-06T04:51:30.912Z,4.67
2022-10-06T04:53:57.737Z,7.07
2022-10-06T04:56:27.275Z,5.57
2022-10-06T04:58:55.355Z,7.17
2022-10-06T05:01:23.729Z,7.80
2022-10-06T05:03:52.561Z,4.37
2022-10-06T05:06:21.934Z,9.07
2022-10-06T05:08:54.122Z,10.17
2022-10-06T05:11:25.679Z,11.87
2022-10-06T05:13:55.133Z,5.37
2022-10-06T05:16:23.363Z,3.83
2022-10-06T05:18:50.215Z,5.60
2022-10-06T05:21:20.166Z,7.40
2022-10-06T05:23:47.356Z,8.90
2022-10-06T05:26:20.749Z,9.43
2022-10-06T05:28:48.230Z,6.13
2022-10-06T05:31:21.191Z,22.80
2022-10-06T05:33:48.132Z,8.80
2022-10-06T05:36:16.441Z,7.43
2022-10-06T05:38:44.251Z,12.07
2022-10-06T05:41:12.591Z,7.27
2022-10-06T05:43:40.137Z,7.60
2022-10-06T05:46:10.662Z,8.50
2022-10-06T05:48:37.380Z,11.60
2022-10-06T05:51:07.129Z,8.50
2022-10-06T05:53:35.725Z,14.50
2022-10-06T05:56:10.397Z,12.93
2022-10-06T05:58:39.559Z,10.13
2022-10-06T06:01:12.921Z,13.57
2022-10-06T06:03:41.213Z,6.83
2022-10-06T06:06:28.970Z,12.33
2022-10-06T06:08:57.167Z,9.77
2022-10-06T06:11:27.586Z,5.97
2022-10-06T06:13:59.135Z,8.70
2022-10-06T06:16:26.549Z,7.87
2022-10-06T06:18:53.289Z,5.00
2022-10-06T06:21:20.344Z,9.27
2022-10-06T06:23:48.528Z,5.53
2022-10-06T06:26:23.508Z,8.43
2022-10-06T06:28:51.530Z,7.13
2022-10-06T06:31:23.994Z,7.13
2022-10-06T06:33:52.763Z,9.90
2022-10-06T06:36:25.060Z,9.10
2022-10-06T06:38:53.929Z,6.87
2022-10-06T06:41:23.642Z,4.90
2022-10-06T06:43:52.886Z,8.93
2022-10-06T06:46:21.997Z,7.20
2022-10-06T06:48:50.321Z,8.63
2022-10-06T06:51:17.257Z,8.23
2022-10-06T06:53:44.038Z,8.80
2022-10-06T06:56:10.780Z,7.30
2022-10-06T06:58:38.033Z,8.17
2022-10-06T07:01:14.155Z,4.50
2022-10-06T07:03:57.033Z,10.50
2022-10-06T07:06:28.546Z,6.87
2022-10-06T07:08:58.047Z,5.37
2022-10-06T07:11:28.164Z,3.77
2022-10-06T07:13:57.973Z,4.47
2022-10-06T07:16:44.334Z,5.60
2022-10-06T07:19:30.077Z,5.27
2022-10-06T07:22:20.169Z,10.40
2022-10-06T07:25:06.035Z,4.20
2022-10-06T07:27:44.919Z,4.87
2022-10-06T07:30:19.324Z,2.73
2022-10-06T07:32:47.217Z,4.50
2022-10-06T07:35:15.497Z,2.70
2022-10-06T07:37:42.541Z,5.13
2022-10-06T07:40:09.937Z,4.30
2022-10-06T07:42:49.268Z,4.90
2022-10-06T07:45:39.412Z,3.90
2022-10-06T07:48:09.875Z,5.20
2022-10-06T07:50:39.627Z,2.70
2022-10-06T07:53:08.804Z,6.97
2022-10-06T07:55:40.144Z,3.73
2022-10-06T07:58:18.761Z,3.63
2022-10-06T08:00:48.278Z,3.13
2022-10-06T08:03:19.390Z,6.13
2022-10-06T08:05:47.976Z,4.10
2022-10-06T08:08:15.594Z,7.10
2022-10-06T08:10:43.419Z,2.80
2022-10-06T08:13:10.555Z,3.47
2022-10-06T08:15:37.390Z,4.63
2022-10-06T08:18:12.403Z,8.33
2022-10-06T08:20:51.507Z,5.10
2022-10-06T08:23:18.232Z,4.43
2022-10-06T08:25:50.909Z,5.70
2022-10-06T08:28:17.846Z,4.63
2022-10-06T08:30:44.589Z,3.50
2022-10-06T08:33:11.351Z,4.83
2022-10-06T08:35:39.406Z,3.20
2022-10-06T08:38:06.419Z,4.63
2022-10-06T08:40:34.171Z,3.53
2022-10-06T08:43:02.745Z,4.10
2022-10-06T08:45:38.422Z,19.93
2022-10-06T08:48:16.608Z,6.47
2022-10-06T08:51:08.421Z,6.00
2022-10-06T08:54:03.439Z,3.70
2022-10-06T08:56:54.398Z,9.63
2022-10-06T08:59:21.863Z,5.20
2022-10-06T09:01:51.404Z,4.80
2022-10-06T09:04:31.024Z,3.87
2022-10-06T09:07:13.938Z,4.10
2022-10-06T09:09:51.776Z,4.53
2022-10-06T09:12:39.529Z,5.40
2022-10-06T09:15:15.239Z,7.00
2022-10-06T09:17:49.870Z,3.67
2022-10-06T09:20:17.595Z,4.43
2022-10-06T09:22:45.944Z,4.60
2022-10-06T09:25:22.047Z,3.63
2022-10-06T09:27:53.892Z,4.53
2022-10-06T09:30:21.144Z,4.43
2022-10-06T09:32:53.671Z,3.37
2022-10-06T09:35:23.083Z,5.20
2022-10-06T09:38:08.814Z,5.33
2022-10-06T09:40:41.912Z,5.10
2022-10-06T09:43:27.983Z,3.23
2022-10-06T09:45:56.469Z,3.70
2022-10-06T09:48:25.576Z,4.60
2022-10-06T09:51:14.933Z,5.43
2022-10-06T09:53:42.967Z,4.50
2022-10-06T09:56:18.739Z,4.30
2022-10-06T09:58:56.421Z,6.90
2022-10-06T10:01:29.161Z,5.43
2022-10-06T10:04:21.739Z,4.47
2022-10-06T10:06:49.295Z,3.80
2022-10-06T10:09:22.797Z,5.40
2022-10-06T10:12:20.243Z,4.80
2022-10-06T10:14:47.419Z,8.00
2022-10-06T10:17:34.921Z,8.30
2022-10-06T10:20:03.032Z,3.93
2022-10-06T10:22:41.370Z,4.17
2022-10-06T10:25:46.952Z,7.50
2022-10-06T10:28:17.494Z,4.83
2022-10-06T10:31:13.188Z,4.60
2022-10-06T10:34:12.529Z,3.90
2022-10-06T10:36:50.829Z,4.47
2022-10-06T10:39:52.754Z,5.03
2022-10-06T10:42:29.365Z,3.90
2022-10-06T10:45:02.911Z,6.10
2022-10-06T10:47:38.115Z,5.63
2022-10-06T10:50:31.986Z,4.53
2022-10-06T10:53:08.793Z,4.63
2022-10-06T10:55:41.757Z,4.28
2022-10-06T10:58:26.841Z,4.47
2022-10-06T11:00:58.233Z,5.63
2022-10-06T11:03:25.093Z,4.03
2022-10-06T11:06:15.775Z,4.10
2022-10-06T11:09:01.531Z,6.43
2022-10-06T11:11:28.205Z,4.80
2022-10-06T11:13:59.572Z,4.20
2022-10-06T11:16:31.866Z,7.00
2022-10-06T11:19:05.477Z,4.40
2022-10-06T11:22:08.200Z,6.30
2022-10-06T11:24:44.116Z,4.10
2022-10-06T11:27:20.239Z,5.67
2022-10-06T11:30:05.137Z,7.70
2022-10-06T11:32:50.353Z,9.80
2022-10-06T11:35:28.654Z,5.30
2022-10-06T11:38:12.735Z,5.30
2022-10-06T11:40:45.296Z,6.10
2022-10-06T11:43:35.966Z,5.17
2022-10-06T11:46:05.542Z,6.40
2022-10-06T11:48:33.211Z,4.60
2022-10-06T11:51:24.843Z,4.40
2022-10-06T11:53:58.691Z,5.90
2022-10-06T11:56:43.655Z,5.23
2022-10-06T11:59:25.226Z,5.17
2022-10-06T12:01:54.086Z,7.13
2022-10-06T12:04:24.593Z,7.50
2022-10-06T12:06:53.732Z,6.43
2022-10-06T12:09:32.420Z,5.53
2022-10-06T12:12:23.403Z,5.57
2022-10-06T12:17:55.829Z,6.07
2022-10-06T12:20:33.117Z,4.10
2022-10-06T12:23:08.708Z,4.00
2022-10-06T12:25:56.736Z,4.10
2022-10-06T12:28:47.391Z,5.83
2022-10-06T12:31:37.990Z,6.70
2022-10-06T12:34:39.849Z,4.50
2022-10-06T12:37:22.174Z,2.50
2022-10-06T12:39:48.886Z,5.93
2022-10-06T12:42:20.851Z,4.37
2022-10-06T12:44:50.036Z,4.63
2022-10-06T12:47:34.404Z,7.07
2022-10-06T12:50:06.179Z,8.00
2022-10-06T12:52:58.986Z,4.07
2022-10-06T12:55:28.490Z,4.90
2022-10-06T12:57:55.805Z,3.83
2022-10-06T13:02:57.845Z,3.47
2022-10-06T13:05:24.707Z,6.60
2022-10-06T13:08:05.110Z,6.60
2022-10-06T13:10:32.883Z,5.90
2022-10-06T13:13:00.824Z,4.30
2022-10-06T13:15:35.602Z,4.80
2022-10-06T13:18:16.069Z,3.90
2022-10-06T13:20:45.530Z,5.37
2022-10-06T13:23:33.759Z,7.23
2022-10-06T13:26:18.601Z,3.57
2022-10-06T13:28:50.970Z,3.67
2022-10-06T13:31:20.665Z,4.30
2022-10-06T13:34:02.268Z,5.27
2022-10-06T13:36:30.894Z,7.70
2022-10-06T13:38:58.294Z,5.23
2022-10-06T13:41:28.072Z,7.20
2022-10-06T13:43:56.366Z,7.93
2022-10-06T13:46:27.403Z,4.13
2022-10-06T13:49:03.433Z,3.93
2022-10-06T13:51:32.494Z,5.17
2022-10-06T13:54:03.755Z,4.70
2022-10-06T13:56:38.998Z,3.27
2022-10-06T13:59:38.332Z,10.73
2022-10-06T14:02:20.301Z,4.07
2022-10-06T14:05:26.344Z,5.23
2022-10-06T14:08:15.047Z,4.30
2022-10-06T14:10:46.378Z,5.33
2022-10-06T14:13:24.166Z,7.83
2022-10-06T14:16:04.389Z,2.67
2022-10-06T14:18:45.253Z,3.13
2022-10-06T14:21:41.861Z,3.60
2022-10-06T14:24:18.065Z,2.90
2022-10-06T14:26:46.599Z,10.60
2022-10-06T14:29:14.246Z,5.23
2022-10-06T14:31:41.060Z,4.43
2022-10-06T14:34:14.685Z,5.70
2022-10-06T14:36:43.445Z,7.67
2022-10-06T14:39:13.375Z,3.53
2022-10-06T14:41:40.174Z,3.23
2022-10-06T14:44:12.246Z,4.90
2022-10-06T14:46:41.342Z,7.27
2022-10-06T14:49:10.036Z,4.23
2022-10-06T14:51:38.934Z,3.73
2022-10-06T14:54:07.388Z,6.60
2022-10-06T14:56:37.789Z,4.50
2022-10-06T14:59:06.645Z,4.20
2022-10-06T15:01:38.461Z,4.10
2022-10-06T15:04:08.818Z,7.67
2022-10-06T15:06:54.402Z,4.93
2022-10-06T15:09:21.227Z,4.57
2022-10-06T15:11:48.035Z,4.33
2022-10-06T15:14:15.341Z,5.10
2022-10-06T15:16:44.451Z,5.87
2022-10-06T15:19:12.395Z,7.47
2022-10-06T15:21:41.231Z,5.53
2022-10-06T15:24:12.003Z,6.77
2022-10-06T15:26:57.494Z,5.57
2022-10-06T15:29:24.556Z,5.17
2022-10-06T15:31:53.124Z,5.63
2022-10-06T15:34:23.576Z,5.13
2022-10-06T15:36:52.356Z,16.13
2022-10-06T15:39:21.479Z,8.40
2022-10-06T15:41:48.627Z,4.27
2022-10-06T15:44:16.177Z,4.53
2022-10-06T15:46:54.156Z,4.90
2022-10-06T15:49:22.963Z,4.13
2022-10-06T15:51:51.017Z,3.70
2022-10-06T15:54:28.127Z,5.23
2022-10-06T15:56:57.054Z,4.07
2022-10-06T15:59:25.002Z,4.03
2022-10-06T16:01:57.538Z,3.60
2022-10-06T16:04:47.374Z,6.43
2022-10-06T16:07:16.885Z,8.10
2022-10-06T16:09:45.855Z,6.17
2022-10-06T16:12:18.406Z,4.43
2022-10-06T16:14:45.228Z,4.33
2022-10-06T16:17:12.602Z,4.67
2022-10-06T16:19:40.315Z,3.70
2022-10-06T16:22:08.663Z,3.33
2022-10-06T16:24:35.378Z,7.00
2022-10-06T16:27:02.168Z,5.40
2022-10-06T16:29:29.075Z,3.87
2022-10-06T16:31:56.270Z,5.03
2022-10-06T16:34:23.391Z,3.10
2022-10-06T16:36:50.120Z,3.07
2022-10-06T16:39:19.958Z,4.43
2022-10-06T16:41:47.522Z,6.57
2022-10-06T16:44:14.720Z,3.73
2022-10-06T16:46:41.646Z,6.43
2022-10-06T16:49:09.346Z,3.33
2022-10-06T16:51:42.197Z,2.70
2022-10-06T16:54:14.315Z,2.80
2022-10-06T16:56:44.420Z,5.17
2022-10-06T16:59:22.451Z,3.10
2022-10-06T17:01:50.651Z,3.80
2022-10-06T17:04:19.965Z,2.90
2022-10-06T17:06:49.994Z,4.40
2022-10-06T17:09:28.785Z,4.00
2022-10-06T17:11:58.479Z,6.70
2022-10-06T17:14:26.087Z,6.73
2022-10-06T17:16:56.024Z,4.60
2022-10-06T17:19:26.478Z,4.57
2022-10-06T17:21:58.550Z,7.50
2022-10-06T17:24:28.259Z,6.53
2022-10-06T17:26:55.807Z,5.70
2022-10-06T17:29:23.528Z,4.90
2022-10-06T17:31:56.154Z,5.03
2022-10-06T17:34:26.459Z,4.83
2022-10-06T17:36:57.497Z,5.57
2022-10-06T17:39:24.629Z,4.63
2022-10-06T17:41:53.568Z,6.10
2022-10-06T17:44:24.153Z,3.43
2022-10-06T17:46:53.276Z,9.73
2022-10-06T17:49:21.416Z,5.30
2022-10-06T17:51:49.879Z,3.83
2022-10-06T17:54:19.986Z,6.97
2022-10-06T17:56:52.230Z,6.43
2022-10-06T17:59:22.272Z,4.80
2022-10-06T18:01:51.260Z,7.67
2022-10-06T18:04:19.156Z,6.23
2022-10-06T18:06:47.522Z,4.43
2022-10-06T18:09:15.474Z,4.00
2022-10-06T18:11:47.987Z,6.07
2022-10-06T18:14:16.166Z,5.73
2022-10-06T18:16:56.243Z,4.20
2022-10-06T18:19:34.448Z,3.73
2022-10-06T18:22:10.298Z,4.70
2022-10-06T18:24:38.284Z,3.90
2022-10-06T18:27:06.560Z,5.37
2022-10-06T18:29:35.831Z,5.60
2022-10-06T18:37:36.872Z,9.27
2022-10-06T18:40:06.832Z,9.47
2022-10-06T18:42:33.707Z,12.27
2022-10-06T18:45:19.267Z,16.87
2022-10-06T18:48:04.968Z,6.43
2022-10-06T18:50:32.252Z,7.43
2022-10-06T18:52:59.153Z,6.47
2022-10-06T18:55:27.797Z,7.53
2022-10-06T18:57:54.779Z,7.10
2022-10-06T19:00:22.007Z,6.03
2022-10-06T19:02:49.482Z,10.50
2022-10-06T19:05:17.458Z,7.87
2022-10-06T19:07:44.946Z,6.97
2022-10-06T19:10:12.164Z,20.77
2022-10-06T19:12:39.067Z,16.80
2022-10-06T19:15:06.184Z,10.40
2022-10-06T19:17:32.970Z,11.67
2022-10-06T19:19:59.745Z,8.47
2022-10-06T19:22:26.507Z,10.20
2022-10-06T19:24:53.798Z,13.30
2022-10-06T19:27:24.302Z,10.20
2022-10-06T19:29:54.232Z,11.50
2022-10-06T19:32:27.212Z,13.80
2022-10-06T19:34:57.840Z,9.90
2022-10-06T19:37:28.959Z,10.73
2022-10-06T19:39:55.992Z,11.13
2022-10-06T19:42:41.171Z,12.00
2022-10-06T19:45:09.729Z,11.40
2022-10-06T19:47:36.553Z,11.73
2022-10-06T19:50:10.330Z,11.63
2022-10-06T19:52:38.368Z,11.23
2022-10-06T19:55:05.485Z,10.80
2022-10-06T19:57:33.672Z,11.10
2022-10-06T20:00:00.845Z,11.03
2022-10-06T20:02:28.950Z,10.30
2022-10-06T20:04:56.127Z,30.40
2022-10-06T20:07:27.310Z,29.60
2022-10-06T20:09:54.261Z,18.27
2022-10-06T20:12:24.588Z,12.80
2022-10-06T20:14:53.463Z,9.40
2022-10-06T20:17:20.884Z,12.33
2022-10-06T20:19:47.865Z,10.10
2022-10-06T20:22:14.622Z,10.23
2022-10-06T20:24:41.313Z,12.27
2022-10-06T20:27:08.833Z,14.23
2022-10-06T20:29:35.619Z,13.60
2022-10-06T20:32:02.397Z,16.90
2022-10-06T20:34:33.122Z,11.07
2022-10-06T20:37:02.461Z,11.43
2022-10-06T20:39:49.777Z,11.50
2022-10-06T20:42:17.091Z,13.20
2022-10-06T20:44:44.277Z,10.57
2022-10-06T20:47:12.866Z,9.20
2022-10-06T20:49:41.135Z,9.90
2022-10-06T20:52:09.667Z,11.83
2022-10-06T20:54:37.215Z,12.70
2022-10-06T20:57:06.035Z,10.00
2022-10-06T20:59:35.437Z,12.17
2022-10-06T21:02:03.258Z,11.57
2022-10-06T21:04:30.513Z,12.77
2022-10-06T21:06:57.789Z,14.70
2022-10-06T21:09:25.054Z,36.20
2022-10-06T21:11:52.013Z,34.00
2022-10-06T21:14:18.910Z,16.20
2022-10-06T21:16:47.811Z,13.33
2022-10-06T21:19:16.973Z,14.60
2022-10-06T21:21:48.253Z,14.00
2022-10-06T21:24:15.091Z,12.13
2022-10-06T21:26:42.782Z,11.87
2022-10-06T21:29:12.982Z,14.33
2022-10-06T21:31:40.140Z,12.27
2022-10-06T21:34:07.600Z,11.70
2022-10-06T21:36:34.506Z,10.27
2022-10-06T21:39:01.969Z,10.77
2022-10-06T21:41:32.432Z,10.53
2022-10-06T21:44:09.702Z,12.87
2022-10-06T21:46:40.977Z,13.17
2022-10-06T21:49:11.238Z,11.87
2022-10-06T21:51:39.467Z,12.73
2022-10-06T21:54:06.625Z,11.13
2022-10-06T21:56:34.079Z,11.20
2022-10-06T21:59:01.391Z,12.80
2022-10-06T22:01:31.024Z,10.10
2022-10-06T22:04:00.311Z,11.70
2022-10-06T22:06:32.802Z,10.97
2022-10-06T22:09:00.253Z,28.40
2022-10-06T22:11:29.588Z,12.17
2022-10-06T22:13:58.577Z,11.57
2022-10-06T22:16:29.772Z,11.07
2022-10-06T22:18:56.986Z,11.73
2022-10-06T22:21:35.434Z,10.37
2022-10-06T22:24:07.758Z,11.10
2022-10-06T22:26:37.600Z,10.87
2022-10-06T22:29:06.661Z,10.10
2022-10-06T22:31:33.649Z,9.73
2022-10-06T22:34:04.619Z,18.03
2022-10-06T22:36:33.184Z,12.87
2022-10-06T22:39:00.853Z,13.27
2022-10-06T22:41:28.319Z,12.80
2022-10-06T22:43:57.848Z,11.27
2022-10-06T22:46:26.202Z,9.63
2022-10-06T22:48:53.371Z,9.43
2022-10-06T22:51:20.775Z,10.60
2022-10-06T22:53:56.542Z,9.97
2022-10-06T22:56:25.942Z,11.70
2022-10-06T22:58:52.845Z,11.20
2022-10-06T23:01:19.850Z,10.47
2022-10-06T23:03:47.234Z,9.60
2022-10-06T23:06:16.485Z,10.27
2022-10-06T23:08:43.654Z,11.53
2022-10-06T23:11:16.416Z,13.17
2022-10-06T23:13:44.716Z,10.23
2022-10-06T23:16:16.921Z,10.90
2022-10-06T23:18:45.061Z,12.67
2022-10-06T23:21:24.215Z,11.80
2022-10-06T23:23:56.414Z,9.73
2022-10-06T23:26:24.025Z,9.93
2022-10-06T23:28:53.225Z,9.30
2022-10-06T23:31:20.123Z,12.03
2022-10-06T23:33:47.580Z,9.80
2022-10-06T23:36:14.978Z,9.97
2022-10-06T23:38:45.459Z,13.20
2022-10-06T23:41:12.591Z,10.17
2022-10-06T23:43:39.463Z,10.13
2022-10-06T23:46:06.455Z,12.93
2022-10-06T23:48:33.482Z,10.47
2022-10-06T23:51:02.849Z,12.93
2022-10-06T23:53:30.899Z,10.30
2022-10-06T23:55:58.265Z,9.23
2022-10-06T23:58:25.550Z,11.27
